createdAt,value
2023-07-06T00:01:02.659Z,2.42
2023-07-06T00:02:05.843Z,2.63
2023-07-06T00:03:08.821Z,2.60
2023-07-06T00:04:12.102Z,2.72
2023-07-06T00:05:15.546Z,2.90
2023-07-06T00:06:18.822Z,2.90
2023-07-06T00:07:24.494Z,2.65
2023-07-06T00:08:29.248Z,2.25
2023-07-06T00:09:36.941Z,2.95
2023-07-06T00:10:41.033Z,2.75
2023-07-06T00:11:46.100Z,2.47
2023-07-06T00:12:48.996Z,2.50
2023-07-06T00:13:52.042Z,2.55
2023-07-06T00:14:54.899Z,2.70
2023-07-06T00:15:58.021Z,2.78
2023-07-06T00:17:15.650Z,2.80
2023-07-06T00:18:19.037Z,3.00
2023-07-06T00:19:21.932Z,2.75
2023-07-06T00:20:24.993Z,3.00
2023-07-06T00:21:28.399Z,2.70
2023-07-06T00:22:31.299Z,3.10
2023-07-06T00:23:35.035Z,2.97
2023-07-06T00:24:38.524Z,2.72
2023-07-06T00:25:44.577Z,2.88
2023-07-06T00:26:47.704Z,3.22
2023-07-06T00:27:51.129Z,3.30
2023-07-06T00:28:55.083Z,2.90
2023-07-06T00:29:58.355Z,3.03
2023-07-06T00:31:08.923Z,2.42
2023-07-06T00:32:28.190Z,3.53
2023-07-06T00:33:31.361Z,2.92
2023-07-06T00:34:35.858Z,2.45
2023-07-06T00:35:39.102Z,2.95
2023-07-06T00:36:42.425Z,2.80
2023-07-06T00:37:45.356Z,3.17
2023-07-06T00:38:48.698Z,3.35
2023-07-06T00:39:51.910Z,2.63
2023-07-06T00:40:58.011Z,2.67
2023-07-06T00:42:00.836Z,2.63
2023-07-06T00:43:03.676Z,2.72
2023-07-06T00:44:06.671Z,3.13
2023-07-06T00:45:10.746Z,2.70
2023-07-06T00:46:13.954Z,3.28
2023-07-06T00:47:18.007Z,2.95
2023-07-06T00:48:28.079Z,2.90
2023-07-06T00:49:30.963Z,3.28
2023-07-06T00:50:34.137Z,3.28
2023-07-06T00:51:39.093Z,3.03
2023-07-06T00:52:44.626Z,2.85
2023-07-06T00:53:58.800Z,2.58
2023-07-06T00:55:03.574Z,3.45
2023-07-06T00:56:10.029Z,2.63
2023-07-06T00:57:14.137Z,3.20
2023-07-06T00:58:23.949Z,3.25
2023-07-06T00:59:31.708Z,3.47
2023-07-06T01:00:35.946Z,3.63
2023-07-06T01:01:43.484Z,3.65
2023-07-06T01:02:46.556Z,3.20
2023-07-06T01:03:53.830Z,3.30
2023-07-06T01:04:56.714Z,3.25
2023-07-06T01:06:03.511Z,3.30
2023-07-06T01:07:06.668Z,3.08
2023-07-06T01:08:13.203Z,3.22
2023-07-06T01:09:16.599Z,3.83
2023-07-06T01:10:19.604Z,3.50
2023-07-06T01:11:22.724Z,3.63
2023-07-06T01:12:26.065Z,3.50
2023-07-06T01:13:30.326Z,3.88
2023-07-06T01:14:34.273Z,3.33
2023-07-06T01:16:02.382Z,3.30
2023-07-06T01:17:05.259Z,3.50
2023-07-06T01:18:17.099Z,3.63
2023-07-06T01:19:56.410Z,3.47
2023-07-06T01:21:11.188Z,3.90
2023-07-06T01:22:49.756Z,3.40
2023-07-06T01:23:58.625Z,3.55
2023-07-06T01:25:32.840Z,3.67
2023-07-06T01:27:06.518Z,3.65
2023-07-06T01:28:42.985Z,3.13
2023-07-06T01:30:03.741Z,3.90
2023-07-06T01:31:28.055Z,3.72
2023-07-06T01:32:34.034Z,3.53
2023-07-06T01:34:06.552Z,4.00
2023-07-06T01:35:15.282Z,3.67
2023-07-06T01:36:36.304Z,3.38
2023-07-06T01:37:43.438Z,3.53
2023-07-06T01:38:49.893Z,3.70
2023-07-06T01:39:54.793Z,3.40
2023-07-06T01:40:59.465Z,3.83
2023-07-06T01:42:14.362Z,3.25
2023-07-06T01:43:18.694Z,2.97
2023-07-06T01:44:24.644Z,3.10
2023-07-06T01:45:29.999Z,3.40
2023-07-06T01:46:33.006Z,3.50
2023-07-06T01:48:16.497Z,3.60
2023-07-06T01:49:20.184Z,3.40
2023-07-06T01:50:25.573Z,3.42
2023-07-06T01:51:34.376Z,4.05
2023-07-06T01:53:00.162Z,3.28
2023-07-06T01:54:07.110Z,3.25
2023-07-06T01:55:13.716Z,3.38
2023-07-06T01:56:21.085Z,3.55
2023-07-06T01:57:27.022Z,3.65
2023-07-06T01:58:39.144Z,3.85
2023-07-06T01:59:42.129Z,3.45
2023-07-06T02:00:49.368Z,3.42
2023-07-06T02:01:54.146Z,3.38
2023-07-06T02:02:57.126Z,4.00
2023-07-06T02:04:00.305Z,3.08
2023-07-06T02:05:04.621Z,3.35
2023-07-06T02:06:10.721Z,3.63
2023-07-06T02:07:14.692Z,3.30
2023-07-06T02:08:18.384Z,3.63
2023-07-06T02:09:21.953Z,3.58
2023-07-06T02:10:24.940Z,3.92
2023-07-06T02:11:28.090Z,3.65
2023-07-06T02:12:31.032Z,3.72
2023-07-06T02:13:34.097Z,3.60
2023-07-06T02:14:37.097Z,3.90
2023-07-06T02:15:41.920Z,3.72
2023-07-06T02:16:44.952Z,3.50
2023-07-06T02:17:48.326Z,3.08
2023-07-06T02:18:53.944Z,3.92
2023-07-06T02:19:56.822Z,3.85
2023-07-06T02:20:59.743Z,4.13
2023-07-06T02:22:05.748Z,3.70
2023-07-06T02:23:09.912Z,4.57
2023-07-06T02:24:12.811Z,4.25
2023-07-06T02:25:15.871Z,4.10
2023-07-06T02:26:18.841Z,5.07
2023-07-06T02:27:21.907Z,5.00
2023-07-06T02:28:25.295Z,4.40
2023-07-06T02:29:28.572Z,4.30
2023-07-06T02:30:31.417Z,4.55
2023-07-06T02:31:36.811Z,4.20
2023-07-06T02:32:41.148Z,4.50
2023-07-06T02:33:44.033Z,4.78
2023-07-06T02:34:47.353Z,4.20
2023-07-06T02:35:50.747Z,4.13
2023-07-06T02:36:55.526Z,4.63
2023-07-06T02:37:58.622Z,4.18
2023-07-06T02:39:05.136Z,4.90
2023-07-06T02:40:10.024Z,4.40
2023-07-06T02:41:13.979Z,4.35
2023-07-06T02:42:16.842Z,4.68
2023-07-06T02:43:19.695Z,4.30
2023-07-06T02:44:23.496Z,4.65
2023-07-06T02:45:26.482Z,4.80
2023-07-06T02:46:31.437Z,4.35
2023-07-06T02:47:34.481Z,4.18
2023-07-06T02:48:37.461Z,4.50
2023-07-06T02:49:41.564Z,4.60
2023-07-06T02:50:50.529Z,4.93
2023-07-06T02:51:53.525Z,4.10
2023-07-06T02:52:56.570Z,4.10
2023-07-06T02:53:59.461Z,5.07
2023-07-06T02:55:02.449Z,4.78
2023-07-06T02:56:05.657Z,4.25
2023-07-06T02:57:08.552Z,5.07
2023-07-06T02:58:11.393Z,5.20
2023-07-06T02:59:15.177Z,5.53
2023-07-06T03:00:18.444Z,4.93
2023-07-06T03:01:21.908Z,5.28
2023-07-06T03:02:25.093Z,5.40
2023-07-06T03:03:28.150Z,5.22
2023-07-06T03:04:31.139Z,5.13
2023-07-06T03:05:34.971Z,5.10
2023-07-06T03:06:38.968Z,5.13
2023-07-06T03:07:42.730Z,5.30
2023-07-06T03:08:45.954Z,5.38
2023-07-06T03:09:48.967Z,4.95
2023-07-06T03:10:51.874Z,5.50
2023-07-06T03:11:54.835Z,5.07
2023-07-06T03:12:59.286Z,5.05
2023-07-06T03:14:04.317Z,5.80
2023-07-06T03:15:17.396Z,6.07
2023-07-06T03:16:20.619Z,4.65
2023-07-06T03:17:23.521Z,4.90
2023-07-06T03:18:27.661Z,5.25
2023-07-06T03:19:30.802Z,4.47
2023-07-06T03:20:34.127Z,4.80
2023-07-06T03:21:39.391Z,4.35
2023-07-06T03:22:50.123Z,4.72
2023-07-06T03:23:52.985Z,5.30
2023-07-06T03:24:56.506Z,5.03
2023-07-06T03:25:59.911Z,5.50
2023-07-06T03:27:03.908Z,4.80
2023-07-06T03:28:06.938Z,5.93
2023-07-06T03:29:10.682Z,4.72
2023-07-06T03:30:14.685Z,5.22
2023-07-06T03:31:17.604Z,4.63
2023-07-06T03:32:20.667Z,5.28
2023-07-06T03:33:23.618Z,5.10
2023-07-06T03:34:26.502Z,4.68
2023-07-06T03:35:30.042Z,4.57
2023-07-06T03:36:35.353Z,4.40
2023-07-06T03:37:38.958Z,5.45
2023-07-06T03:38:41.914Z,4.40
2023-07-06T03:39:45.714Z,4.93
2023-07-06T03:40:52.061Z,5.03
2023-07-06T03:41:55.042Z,4.40
2023-07-06T03:42:58.089Z,4.40
2023-07-06T03:44:01.073Z,4.05
2023-07-06T03:45:07.076Z,4.43
2023-07-06T03:46:10.406Z,4.22
2023-07-06T03:47:13.364Z,4.53
2023-07-06T03:48:16.884Z,4.03
2023-07-06T03:49:20.661Z,4.00
2023-07-06T03:50:23.602Z,3.75
2023-07-06T03:51:26.715Z,4.05
2023-07-06T03:52:30.082Z,3.97
2023-07-06T03:53:33.399Z,3.80
2023-07-06T03:54:38.185Z,4.20
2023-07-06T03:55:42.509Z,3.45
2023-07-06T03:56:45.549Z,2.97
2023-07-06T03:58:02.584Z,4.07
2023-07-06T03:59:07.289Z,3.63
2023-07-06T04:00:30.008Z,3.63
2023-07-06T04:01:33.244Z,3.28
2023-07-06T04:02:36.325Z,3.75
2023-07-06T04:03:39.400Z,3.75
2023-07-06T04:04:42.839Z,3.25
2023-07-06T04:05:49.824Z,3.17
2023-07-06T04:06:52.997Z,3.90
2023-07-06T04:07:55.969Z,3.13
2023-07-06T04:08:58.966Z,2.88
2023-07-06T04:10:02.286Z,3.80
2023-07-06T04:11:06.092Z,3.38
2023-07-06T04:12:14.817Z,3.28
2023-07-06T04:13:18.037Z,3.25
2023-07-06T04:14:28.156Z,3.35
2023-07-06T04:15:32.505Z,3.80
2023-07-06T04:16:35.436Z,3.60
2023-07-06T04:17:38.455Z,4.00
2023-07-06T04:18:41.395Z,3.78
2023-07-06T04:19:44.702Z,3.50
2023-07-06T04:20:49.814Z,3.60
2023-07-06T04:21:53.906Z,3.38
2023-07-06T04:22:57.798Z,3.65
2023-07-06T04:24:01.198Z,4.50
2023-07-06T04:25:06.570Z,3.65
2023-07-06T04:26:09.658Z,3.50
2023-07-06T04:27:12.567Z,3.50
2023-07-06T04:28:15.751Z,3.38
2023-07-06T04:29:19.040Z,3.85
2023-07-06T04:30:22.004Z,3.75
2023-07-06T04:31:25.036Z,3.70
2023-07-06T04:32:33.081Z,3.50
2023-07-06T04:33:36.046Z,3.72
2023-07-06T04:34:41.853Z,3.40
2023-07-06T04:35:45.136Z,3.80
2023-07-06T04:36:48.569Z,3.83
2023-07-06T04:37:52.289Z,3.80
2023-07-06T04:38:55.370Z,3.88
2023-07-06T04:39:59.089Z,3.70
2023-07-06T04:41:02.428Z,4.20
2023-07-06T04:42:07.007Z,3.70
2023-07-06T04:43:11.173Z,3.65
2023-07-06T04:44:14.124Z,3.47
2023-07-06T04:45:17.648Z,3.30
2023-07-06T04:46:24.100Z,3.55
2023-07-06T04:47:27.628Z,3.50
2023-07-06T04:49:34.192Z,3.10
2023-07-06T04:50:39.086Z,3.45
2023-07-06T04:51:41.929Z,3.92
2023-07-06T04:52:45.791Z,3.70
2023-07-06T04:53:50.064Z,3.30
2023-07-06T04:54:53.034Z,4.00
2023-07-06T04:56:05.397Z,3.75
2023-07-06T04:57:09.542Z,3.25
2023-07-06T04:58:13.072Z,3.70
2023-07-06T04:59:16.012Z,3.63
2023-07-06T05:00:26.049Z,3.40
2023-07-06T05:01:29.150Z,3.40
2023-07-06T05:02:34.045Z,3.40
2023-07-06T05:03:40.248Z,4.47
2023-07-06T05:04:43.373Z,3.47
2023-07-06T05:05:47.380Z,4.03
2023-07-06T05:06:50.306Z,3.72
2023-07-06T05:07:54.031Z,3.75
2023-07-06T05:08:57.118Z,4.20
2023-07-06T05:10:00.030Z,4.65
2023-07-06T05:11:06.720Z,4.40
2023-07-06T05:12:11.716Z,4.40
2023-07-06T05:13:14.634Z,3.92
2023-07-06T05:14:17.550Z,3.65
2023-07-06T05:15:20.926Z,3.50
2023-07-06T05:16:23.789Z,3.75
2023-07-06T05:17:26.744Z,3.58
2023-07-06T05:18:30.311Z,4.05
2023-07-06T05:19:33.941Z,3.92
2023-07-06T05:20:36.854Z,3.75
2023-07-06T05:21:39.874Z,4.32
2023-07-06T05:22:48.972Z,4.65
2023-07-06T05:23:51.798Z,4.20
2023-07-06T05:24:54.868Z,4.70
2023-07-06T05:25:59.004Z,4.28
2023-07-06T05:27:02.409Z,4.35
2023-07-06T05:28:05.652Z,3.95
2023-07-06T05:29:08.554Z,4.00
2023-07-06T05:30:11.870Z,4.20
2023-07-06T05:31:14.858Z,4.32
2023-07-06T05:32:17.859Z,4.10
2023-07-06T05:33:20.801Z,4.15
2023-07-06T05:34:23.776Z,4.13
2023-07-06T05:35:29.604Z,3.92
2023-07-06T05:36:32.480Z,3.60
2023-07-06T05:37:36.471Z,3.78
2023-07-06T05:38:39.745Z,3.83
2023-07-06T05:39:42.603Z,3.63
2023-07-06T05:40:45.568Z,4.28
2023-07-06T05:41:51.157Z,4.10
2023-07-06T05:42:55.856Z,4.00
2023-07-06T05:43:58.910Z,4.43
2023-07-06T05:45:02.097Z,4.07
2023-07-06T05:46:04.925Z,4.03
2023-07-06T05:47:11.190Z,3.78
2023-07-06T05:48:14.974Z,3.92
2023-07-06T05:49:17.858Z,3.65
2023-07-06T05:50:20.866Z,4.18
2023-07-06T05:51:23.738Z,4.00
2023-07-06T05:52:26.596Z,4.35
2023-07-06T05:53:29.774Z,3.90
2023-07-06T05:54:32.785Z,3.60
2023-07-06T05:55:35.712Z,4.05
2023-07-06T05:56:38.785Z,3.50
2023-07-06T05:57:41.669Z,3.67
2023-07-06T05:58:45.886Z,3.60
2023-07-06T05:59:49.778Z,3.40
2023-07-06T06:00:54.237Z,3.50
2023-07-06T06:01:57.950Z,3.70
2023-07-06T06:03:00.998Z,3.22
2023-07-06T06:04:03.982Z,3.50
2023-07-06T06:05:07.386Z,3.55
2023-07-06T06:06:12.732Z,3.60
2023-07-06T06:07:15.884Z,3.17
2023-07-06T06:08:20.057Z,3.65
2023-07-06T06:09:24.337Z,3.10
2023-07-06T06:10:27.297Z,3.63
2023-07-06T06:11:30.327Z,3.33
2023-07-06T06:12:33.443Z,3.35
2023-07-06T06:13:36.525Z,3.83
2023-07-06T06:14:39.556Z,3.80
2023-07-06T06:15:42.632Z,3.75
2023-07-06T06:16:45.717Z,3.40
2023-07-06T06:17:49.698Z,3.50
2023-07-06T06:18:52.597Z,3.20
2023-07-06T06:19:55.511Z,3.38
2023-07-06T06:21:00.157Z,3.65
2023-07-06T06:22:05.930Z,3.28
2023-07-06T06:23:12.283Z,3.25
2023-07-06T06:24:15.206Z,3.10
2023-07-06T06:25:18.249Z,3.22
2023-07-06T06:26:21.300Z,3.55
2023-07-06T06:27:24.279Z,3.05
2023-07-06T06:28:27.599Z,3.80
2023-07-06T06:29:30.538Z,3.28
2023-07-06T06:30:36.708Z,3.10
2023-07-06T06:31:44.579Z,3.80
2023-07-06T06:32:47.594Z,2.90
2023-07-06T06:33:50.556Z,2.72
2023-07-06T06:34:54.249Z,2.90
2023-07-06T06:35:58.070Z,3.15
2023-07-06T06:37:02.109Z,3.08
2023-07-06T06:38:07.912Z,3.08
2023-07-06T06:39:11.341Z,3.15
2023-07-06T06:40:14.391Z,2.60
2023-07-06T06:41:17.533Z,2.40
2023-07-06T06:42:20.811Z,3.08
2023-07-06T06:43:24.948Z,2.80
2023-07-06T06:44:30.640Z,2.53
2023-07-06T06:45:34.537Z,2.50
2023-07-06T06:46:37.403Z,2.25
2023-07-06T06:47:40.418Z,2.28
2023-07-06T06:48:43.648Z,2.50
2023-07-06T06:49:46.438Z,2.42
2023-07-06T06:50:49.557Z,2.10
2023-07-06T06:51:52.467Z,2.95
2023-07-06T06:52:55.384Z,1.90
2023-07-06T06:53:58.352Z,2.40
2023-07-06T06:55:01.200Z,2.55
2023-07-06T06:56:06.233Z,2.47
2023-07-06T06:57:09.214Z,2.20
2023-07-06T06:58:12.220Z,2.60
2023-07-06T06:59:15.258Z,2.13
2023-07-06T07:00:18.741Z,2.70
2023-07-06T07:01:22.231Z,2.25
2023-07-06T07:02:25.290Z,2.65
2023-07-06T07:03:31.118Z,2.22
2023-07-06T07:04:34.010Z,2.47
2023-07-06T07:05:37.174Z,2.10
2023-07-06T07:06:42.882Z,2.17
2023-07-06T07:07:45.812Z,2.15
2023-07-06T07:08:52.747Z,2.05
2023-07-06T07:09:56.308Z,2.33
2023-07-06T07:11:07.232Z,2.22
2023-07-06T07:12:19.990Z,1.90
2023-07-06T07:13:23.070Z,2.22
2023-07-06T07:14:26.162Z,2.30
2023-07-06T07:15:29.058Z,2.00
2023-07-06T07:16:31.998Z,1.85
2023-07-06T07:17:35.501Z,2.13
2023-07-06T07:18:39.942Z,2.20
2023-07-06T07:19:43.206Z,1.60
2023-07-06T07:20:50.678Z,1.85
2023-07-06T07:21:53.641Z,2.15
2023-07-06T07:22:56.743Z,2.10
2023-07-06T07:24:00.542Z,2.17
2023-07-06T07:25:04.543Z,1.88
2023-07-06T07:26:07.445Z,1.60
2023-07-06T07:27:12.839Z,1.60
2023-07-06T07:28:18.128Z,1.67
2023-07-06T07:29:22.436Z,1.67
2023-07-06T07:30:28.014Z,1.88
2023-07-06T07:31:31.249Z,1.70
2023-07-06T07:32:34.773Z,2.10
2023-07-06T07:33:38.914Z,1.65
2023-07-06T07:34:42.306Z,1.80
2023-07-06T07:35:45.276Z,1.85
2023-07-06T07:36:48.496Z,1.48
2023-07-06T07:37:52.754Z,1.70
2023-07-06T07:38:59.613Z,2.28
2023-07-06T07:40:02.546Z,1.77
2023-07-06T07:41:08.316Z,2.30
2023-07-06T07:42:11.818Z,2.00
2023-07-06T07:43:17.251Z,1.98
2023-07-06T07:44:20.283Z,2.35
2023-07-06T07:45:23.612Z,1.90
2023-07-06T07:46:30.517Z,1.83
2023-07-06T07:47:33.480Z,2.30
2023-07-06T07:48:42.625Z,2.30
2023-07-06T07:49:48.478Z,1.95
2023-07-06T07:51:02.889Z,2.40
2023-07-06T07:52:06.579Z,2.45
2023-07-06T07:53:09.457Z,2.03
2023-07-06T07:54:12.464Z,2.03
2023-07-06T07:55:15.725Z,2.08
2023-07-06T07:56:19.557Z,1.52
2023-07-06T07:57:22.611Z,1.67
2023-07-06T07:58:25.654Z,1.77
2023-07-06T07:59:28.580Z,1.98
2023-07-06T08:00:32.673Z,2.38
2023-07-06T08:01:35.576Z,2.15
2023-07-06T08:02:38.646Z,1.70
2023-07-06T08:03:42.068Z,1.60
2023-07-06T08:04:45.795Z,1.60
2023-07-06T08:05:49.603Z,1.38
2023-07-06T08:06:52.667Z,1.50
2023-07-06T08:07:57.368Z,1.90
2023-07-06T08:09:00.400Z,1.77
2023-07-06T08:10:04.259Z,1.60
2023-07-06T08:11:18.196Z,1.40
2023-07-06T08:12:22.005Z,1.75
2023-07-06T08:13:25.090Z,1.42
2023-07-06T08:14:43.955Z,1.58
2023-07-06T08:15:47.327Z,1.80
2023-07-06T08:16:50.462Z,1.77
2023-07-06T08:17:54.352Z,1.52
2023-07-06T08:18:58.586Z,1.65
2023-07-06T08:20:50.608Z,1.75
2023-07-06T08:22:08.333Z,1.40
2023-07-06T08:23:08.310Z,2.00
2023-07-06T08:24:11.194Z,2.00
2023-07-06T08:25:14.618Z,1.55
2023-07-06T08:26:17.969Z,1.88
2023-07-06T08:27:22.850Z,1.98
2023-07-06T08:28:33.051Z,1.70
2023-07-06T08:29:36.103Z,1.60
2023-07-06T08:30:42.320Z,1.65
2023-07-06T08:31:47.599Z,1.83
2023-07-06T08:32:51.567Z,1.90
2023-07-06T08:33:54.449Z,1.80
2023-07-06T08:34:57.348Z,1.85
2023-07-06T08:36:00.404Z,1.63
2023-07-06T08:37:03.287Z,1.77
2023-07-06T08:38:06.330Z,1.40
2023-07-06T08:39:10.368Z,1.95
2023-07-06T08:40:19.563Z,1.95
2023-07-06T08:41:39.810Z,1.58
2023-07-06T08:42:49.484Z,1.50
2023-07-06T08:43:53.377Z,1.42
2023-07-06T08:44:58.165Z,1.55
2023-07-06T08:46:04.692Z,1.70
2023-07-06T08:47:09.785Z,1.35
2023-07-06T08:48:21.022Z,1.63
2023-07-06T08:49:33.769Z,1.70
2023-07-06T08:50:38.513Z,1.60
2023-07-06T08:51:41.506Z,1.50
2023-07-06T08:52:44.412Z,1.60
2023-07-06T08:53:58.896Z,1.80
2023-07-06T08:55:01.929Z,1.60
2023-07-06T08:56:06.118Z,1.63
2023-07-06T08:57:17.252Z,1.60
2023-07-06T08:58:26.618Z,1.80
2023-07-06T08:59:35.134Z,1.30
2023-07-06T09:00:38.065Z,1.50
2023-07-06T09:01:41.005Z,1.80
2023-07-06T09:02:44.616Z,1.40
2023-07-06T09:03:58.640Z,1.50
2023-07-06T09:05:03.200Z,1.42
2023-07-06T09:06:06.073Z,1.85
2023-07-06T09:07:14.585Z,1.73
2023-07-06T09:08:19.086Z,1.90
2023-07-06T09:09:22.199Z,1.67
2023-07-06T09:10:28.732Z,1.95
2023-07-06T09:11:35.634Z,1.80
2023-07-06T09:12:41.099Z,1.42
2023-07-06T09:13:48.827Z,1.58
2023-07-06T09:14:53.581Z,1.60
2023-07-06T09:15:58.584Z,1.60
2023-07-06T09:17:01.998Z,1.70
2023-07-06T09:18:05.148Z,1.50
2023-07-06T09:19:10.265Z,1.65
2023-07-06T09:20:14.159Z,1.45
2023-07-06T09:21:19.567Z,1.60
2023-07-06T09:22:24.259Z,1.70
2023-07-06T09:23:27.269Z,1.45
2023-07-06T09:24:30.241Z,1.92
2023-07-06T09:25:44.124Z,1.40
2023-07-06T09:26:48.316Z,1.90
2023-07-06T09:27:51.717Z,1.92
2023-07-06T09:29:12.336Z,1.40
2023-07-06T09:30:44.606Z,1.65
2023-07-06T09:31:48.771Z,1.60
2023-07-06T09:32:56.297Z,1.52
2023-07-06T09:34:00.455Z,1.67
2023-07-06T09:35:09.879Z,1.63
2023-07-06T09:36:25.391Z,2.10
2023-07-06T09:37:28.644Z,1.45
2023-07-06T09:38:33.170Z,1.85
2023-07-06T09:39:38.287Z,1.90
2023-07-06T09:40:41.417Z,1.90
2023-07-06T09:41:47.231Z,1.70
2023-07-06T09:42:50.991Z,1.48
2023-07-06T09:43:59.316Z,1.40
2023-07-06T09:45:02.274Z,1.70
2023-07-06T09:46:05.622Z,1.63
2023-07-06T09:47:13.421Z,2.08
2023-07-06T09:48:30.448Z,1.92
2023-07-06T09:49:35.985Z,1.80
2023-07-06T09:50:49.833Z,1.80
2023-07-06T09:51:58.534Z,1.80
2023-07-06T09:53:01.960Z,1.83
2023-07-06T09:54:06.833Z,1.80
2023-07-06T09:55:18.993Z,1.67
2023-07-06T09:56:21.837Z,2.00
2023-07-06T09:57:26.429Z,1.73
2023-07-06T09:58:29.573Z,1.80
2023-07-06T09:59:33.318Z,1.38
2023-07-06T10:00:42.090Z,1.60
2023-07-06T10:02:17.037Z,1.73
2023-07-06T10:03:30.419Z,1.60
2023-07-06T10:04:45.959Z,1.70
2023-07-06T10:05:58.172Z,1.85
2023-07-06T10:07:32.000Z,1.40
2023-07-06T10:08:46.516Z,2.00
2023-07-06T10:09:55.089Z,1.52
2023-07-06T10:11:04.241Z,1.70
2023-07-06T10:12:30.525Z,1.55
2023-07-06T10:13:59.750Z,1.70
2023-07-06T10:15:03.732Z,1.33
2023-07-06T10:16:13.021Z,1.70
2023-07-06T10:17:36.914Z,1.50
2023-07-06T10:18:58.857Z,1.60
2023-07-06T10:20:19.498Z,1.75
2023-07-06T10:21:31.413Z,1.65
2023-07-06T10:22:52.659Z,1.25
2023-07-06T10:24:15.848Z,1.58
2023-07-06T10:25:48.900Z,1.40
2023-07-06T10:26:55.065Z,1.77
2023-07-06T10:28:25.871Z,1.50
2023-07-06T10:29:43.088Z,1.60
2023-07-06T10:30:49.626Z,1.40
2023-07-06T10:31:57.395Z,1.23
2023-07-06T10:33:02.197Z,1.45
2023-07-06T10:34:39.974Z,1.73
2023-07-06T10:35:48.446Z,1.30
2023-07-06T10:36:51.324Z,1.27
2023-07-06T10:37:54.363Z,1.05
2023-07-06T10:38:58.163Z,1.38
2023-07-06T10:40:02.700Z,1.52
2023-07-06T10:41:11.990Z,1.40
2023-07-06T10:42:28.459Z,1.30
2023-07-06T10:43:32.653Z,1.85
2023-07-06T10:44:42.504Z,1.50
2023-07-06T10:45:58.405Z,1.30
2023-07-06T10:47:01.571Z,1.40
2023-07-06T10:48:15.816Z,2.10
2023-07-06T10:49:22.775Z,1.52
2023-07-06T10:50:30.561Z,1.50
2023-07-06T10:51:33.619Z,1.50
2023-07-06T10:52:44.605Z,1.40
2023-07-06T10:54:12.958Z,1.30
2023-07-06T10:55:25.552Z,1.10
2023-07-06T10:56:29.913Z,1.42
2023-07-06T10:57:36.369Z,1.30
2023-07-06T10:58:49.847Z,1.50
2023-07-06T10:59:55.721Z,1.20
2023-07-06T11:00:59.672Z,1.23
2023-07-06T11:02:21.710Z,1.42
2023-07-06T11:03:30.365Z,1.30
2023-07-06T11:04:41.900Z,1.00
2023-07-06T11:06:07.433Z,1.48
2023-07-06T11:07:14.948Z,1.50
2023-07-06T11:08:17.794Z,1.52
2023-07-06T11:09:20.787Z,1.15
2023-07-06T11:10:30.302Z,1.48
2023-07-06T11:11:45.079Z,1.35
2023-07-06T11:12:55.600Z,1.20
2023-07-06T11:13:58.550Z,1.50
2023-07-06T11:15:18.452Z,1.02
2023-07-06T11:16:28.748Z,1.30
2023-07-06T11:17:38.583Z,1.23
2023-07-06T11:19:51.295Z,1.17
2023-07-06T11:20:57.605Z,1.10
2023-07-06T11:22:05.152Z,1.10
2023-07-06T11:23:17.545Z,1.50
2023-07-06T11:24:23.107Z,2.05
2023-07-06T11:25:28.416Z,1.50
2023-07-06T11:26:49.419Z,1.20
2023-07-06T11:27:55.261Z,1.67
2023-07-06T11:28:58.144Z,1.50
2023-07-06T11:30:14.666Z,1.40
2023-07-06T11:31:34.816Z,1.35
2023-07-06T11:32:49.487Z,1.65
2023-07-06T11:34:02.258Z,1.52
2023-07-06T11:35:11.209Z,1.40
2023-07-06T11:36:21.864Z,1.35
2023-07-06T11:37:49.138Z,1.20
2023-07-06T11:39:21.064Z,1.58
2023-07-06T11:40:43.159Z,1.33
2023-07-06T11:41:55.417Z,1.40
2023-07-06T11:43:16.885Z,1.17
2023-07-06T11:44:40.951Z,1.45
2023-07-06T11:45:53.451Z,1.38
2023-07-06T11:46:56.943Z,1.45
2023-07-06T11:48:27.899Z,1.58
2023-07-06T11:49:42.666Z,0.95
2023-07-06T11:50:48.517Z,1.55
2023-07-06T11:51:52.228Z,1.05
2023-07-06T11:53:11.520Z,1.30
2023-07-06T11:54:35.356Z,1.30
2023-07-06T11:55:56.897Z,1.20
2023-07-06T11:57:38.592Z,1.23
2023-07-06T11:58:45.346Z,1.40
2023-07-06T11:59:54.181Z,1.25
2023-07-06T12:00:58.936Z,1.00
2023-07-06T12:02:01.952Z,1.27
2023-07-06T12:03:12.019Z,1.33
2023-07-06T12:04:19.874Z,1.45
2023-07-06T12:05:31.460Z,0.88
2023-07-06T12:06:34.411Z,1.30
2023-07-06T12:07:37.977Z,0.95
2023-07-06T12:08:41.194Z,1.23
2023-07-06T12:09:48.194Z,1.35
2023-07-06T12:10:52.890Z,1.17
2023-07-06T12:12:09.640Z,1.00
2023-07-06T12:13:41.281Z,1.13
2023-07-06T12:14:44.346Z,1.08
2023-07-06T12:15:49.043Z,1.10
2023-07-06T12:16:52.364Z,1.50
2023-07-06T12:18:02.447Z,1.20
2023-07-06T12:19:14.264Z,1.20
2023-07-06T12:20:18.948Z,1.00
2023-07-06T12:21:32.710Z,1.20
2023-07-06T12:22:35.602Z,1.02
2023-07-06T12:23:38.623Z,0.90
2023-07-06T12:24:41.677Z,1.30
2023-07-06T12:25:44.878Z,1.00
2023-07-06T12:26:52.085Z,1.05
2023-07-06T12:28:01.849Z,1.50
2023-07-06T12:29:04.808Z,1.08
2023-07-06T12:30:08.342Z,1.40
2023-07-06T12:31:11.609Z,1.30
2023-07-06T12:32:22.684Z,0.98
2023-07-06T12:33:26.633Z,1.27
2023-07-06T12:34:34.103Z,1.27
2023-07-06T12:35:37.002Z,1.20
2023-07-06T12:36:40.234Z,1.50
2023-07-06T12:37:43.316Z,1.00
2023-07-06T12:38:48.968Z,1.58
2023-07-06T12:39:51.994Z,1.20
2023-07-06T12:41:14.805Z,1.30
2023-07-06T12:42:21.975Z,1.48
2023-07-06T12:43:30.113Z,1.35
2023-07-06T12:44:32.998Z,1.13
2023-07-06T12:45:36.112Z,1.38
2023-07-06T12:46:39.140Z,1.00
2023-07-06T12:47:42.614Z,1.20
2023-07-06T12:48:48.007Z,1.25
2023-07-06T12:49:57.053Z,0.90
2023-07-06T12:51:05.480Z,1.20
2023-07-06T12:52:12.161Z,1.40
2023-07-06T12:53:23.229Z,1.00
2023-07-06T12:54:27.202Z,1.48
2023-07-06T12:55:33.485Z,1.00
2023-07-06T12:56:39.121Z,1.00
2023-07-06T12:57:42.655Z,1.20
2023-07-06T12:58:54.944Z,0.90
2023-07-06T13:00:18.877Z,1.33
2023-07-06T13:01:27.060Z,1.45
2023-07-06T13:02:35.159Z,1.60
2023-07-06T13:03:58.671Z,1.02
2023-07-06T13:05:16.390Z,1.60
2023-07-06T13:06:21.230Z,1.10
2023-07-06T13:07:27.508Z,1.40
2023-07-06T13:08:31.564Z,1.13
2023-07-06T13:09:34.565Z,1.10
2023-07-06T13:10:40.365Z,1.10
2023-07-06T13:11:47.665Z,1.02
2023-07-06T13:12:52.555Z,1.10
2023-07-06T13:14:04.819Z,0.93
2023-07-06T13:15:08.268Z,1.00
2023-07-06T13:16:18.889Z,1.00
2023-07-06T13:17:27.549Z,0.90
2023-07-06T13:18:31.659Z,0.98
2023-07-06T13:19:36.341Z,0.70
2023-07-06T13:20:39.150Z,0.93
2023-07-06T13:21:42.398Z,1.10
2023-07-06T13:22:45.624Z,1.05
2023-07-06T13:23:49.734Z,1.10
2023-07-06T13:24:52.763Z,0.98
2023-07-06T13:25:57.370Z,1.02
2023-07-06T13:27:05.360Z,1.08
2023-07-06T13:28:20.657Z,1.05
2023-07-06T13:29:24.234Z,1.15
2023-07-06T13:30:29.637Z,1.20
2023-07-06T13:31:52.034Z,1.20
2023-07-06T13:32:58.662Z,1.08
2023-07-06T13:34:01.761Z,0.90
2023-07-06T13:35:04.880Z,1.08
2023-07-06T13:36:18.420Z,0.90
2023-07-06T13:37:25.822Z,0.98
2023-07-06T13:38:29.842Z,1.10
2023-07-06T13:39:32.797Z,1.13
2023-07-06T13:40:38.623Z,1.13
2023-07-06T13:41:41.524Z,1.17
2023-07-06T13:42:44.914Z,1.20
2023-07-06T13:43:48.346Z,1.10
2023-07-06T13:44:51.721Z,1.00
2023-07-06T13:45:54.729Z,1.30
2023-07-06T13:46:57.694Z,1.15
2023-07-06T13:48:00.580Z,0.98
2023-07-06T13:49:03.954Z,1.08
2023-07-06T13:50:07.390Z,1.00
2023-07-06T13:51:12.357Z,0.95
2023-07-06T13:52:15.709Z,1.00
2023-07-06T13:53:19.062Z,1.15
2023-07-06T13:54:25.808Z,1.35
2023-07-06T13:55:31.594Z,1.00
2023-07-06T13:56:34.976Z,1.20
2023-07-06T13:57:37.888Z,0.85
2023-07-06T13:58:42.871Z,1.10
2023-07-06T13:59:47.684Z,1.00
2023-07-06T14:00:51.300Z,0.85
2023-07-06T14:01:54.245Z,0.88
2023-07-06T14:02:57.927Z,0.90
2023-07-06T14:04:04.575Z,1.10
2023-07-06T14:05:14.435Z,1.00
2023-07-06T14:06:19.976Z,1.05
2023-07-06T14:07:22.872Z,1.30
2023-07-06T14:08:27.033Z,1.23
2023-07-06T14:09:29.953Z,1.25
2023-07-06T14:10:33.753Z,1.05
2023-07-06T14:11:37.653Z,1.00
2023-07-06T14:12:40.716Z,1.20
2023-07-06T14:13:46.812Z,1.00
2023-07-06T14:14:51.104Z,0.85
2023-07-06T14:15:54.094Z,1.30
2023-07-06T14:16:57.545Z,1.40
2023-07-06T14:18:01.383Z,1.10
2023-07-06T14:19:06.770Z,0.90
2023-07-06T14:20:13.682Z,0.85
2023-07-06T14:21:17.206Z,0.93
2023-07-06T14:22:20.433Z,1.00
2023-07-06T14:23:23.549Z,1.10
2023-07-06T14:24:27.154Z,1.35
2023-07-06T14:25:30.230Z,0.95
2023-07-06T14:26:33.247Z,1.27
2023-07-06T14:27:37.309Z,1.30
2023-07-06T14:28:40.350Z,1.00
2023-07-06T14:29:48.122Z,0.98
2023-07-06T14:30:51.074Z,1.02
2023-07-06T14:31:54.878Z,1.13
2023-07-06T14:33:04.313Z,1.27
2023-07-06T14:34:07.427Z,1.00
2023-07-06T14:35:11.566Z,0.90
2023-07-06T14:36:15.076Z,1.00
2023-07-06T14:37:18.092Z,1.08
2023-07-06T14:38:21.003Z,1.05
2023-07-06T14:39:23.932Z,1.35
2023-07-06T14:40:26.993Z,1.00
2023-07-06T14:41:30.629Z,1.08
2023-07-06T14:42:33.642Z,1.02
2023-07-06T14:43:36.614Z,0.80
2023-07-06T14:44:39.553Z,1.00
2023-07-06T14:45:42.455Z,1.10
2023-07-06T14:46:45.330Z,0.90
2023-07-06T14:47:48.392Z,1.10